Time;durP1;ratioP1;P1;durP2;ratioP2;P2;SDS_P1;SDS_P2;PMS_P1;PMS_P2;Temp;Humidity;BMP_temperature;BMP_pressure;BME280_temperature;BME280_humidity;BME280_pressure;Samples;Min_cycle;Max_cycle;Signal;HPM_P1;HPM_P2
2023/06/17 00:02:21;;;;;;;;;15.00;14.25;;;;;;;;4972571;28;45390;-72
2023/06/17 00:04:47;;;;;;;;;19.50;14.75;;;;;;;;4973348;28;45491;-69
2023/06/17 00:07:12;;;;;;;;;15.25;14.25;;;;;;;;4973695;28;45459;-69
2023/06/17 00:09:40;;;;;;;;;15.75;14.00;;;;;;;;4973010;28;46047;-69
2023/06/17 00:12:06;;;;;;;;;11.50;8.75;;;;;;;;4973491;28;45394;-69
2023/06/17 00:14:32;;;;;;;;;16.50;16.50;;;;;;;;4973632;28;45504;-69
2023/06/17 00:16:59;;;;;;;;;13.25;12.50;;;;;;;;4973090;28;45549;-69
2023/06/17 00:19:24;;;;;;;;;14.75;14.25;;;;;;;;4973541;28;47186;-70
2023/06/17 00:21:49;;;;;;;;;12.00;12.00;;;;;;;;4976622;28;45374;-69
2023/06/17 00:24:15;;;;;;;;;13.00;12.00;;;;;;;;4976591;28;45487;-68
2023/06/17 00:26:40;;;;;;;;;17.00;16.50;;;;;;;;4976725;28;45371;-69
2023/06/17 00:29:06;;;;;;;;;14.25;13.50;;;;;;;;4975195;28;46648;-70
2023/06/17 00:31:31;;;;;;;;;15.50;13.00;;;;;;;;4975134;28;45410;-68
2023/06/17 00:33:57;;;;;;;;;17.75;16.00;;;;;;;;4976797;28;45428;-69
2023/06/17 00:36:22;;;;;;;;;17.75;16.25;;;;;;;;4976518;28;45388;-69
2023/06/17 00:38:47;;;;;;;;;15.75;15.75;;;;;;;;4976356;28;46579;-72
2023/06/17 00:41:12;;;;;;;;;16.75;16.75;;;;;;;;4976454;28;45489;-71
2023/06/17 00:43:38;;;;;;;;;14.00;13.50;;;;;;;;4976117;28;45767;-72
2023/06/17 00:46:03;;;;;;;;;16.00;16.00;;;;;;;;4974724;28;45404;-71
2023/06/17 00:48:28;;;;;;;;;12.75;12.75;;;;;;;;4975437;28;45968;-72
2023/06/17 00:51:01;;;;;;;;;18.75;17.75;;;;;;;;4975958;28;45559;-71
2023/06/17 00:53:26;;;;;;;;;9.50;9.50;;;;;;;;4974523;28;45497;-67
2023/06/17 00:55:51;;;;;;;;;12.75;12.25;;;;;;;;4975939;28;45318;-71
2023/06/17 00:58:18;;;;;;;;;11.50;11.50;;;;;;;;4976497;28;45578;-68
2023/06/17 01:00:43;;;;;;;;;11.75;11.75;;;;;;;;4976285;28;45489;-71
2023/06/17 01:03:09;;;;;;;;;9.00;9.00;;;;;;;;4976580;28;45515;-69
2023/06/17 01:05:34;;;;;;;;;11.25;11.25;;;;;;;;4976062;28;45520;-69
2023/06/17 01:08:16;;;;;;;;;10.00;10.00;;;;;;;;4975984;28;45491;-68
2023/06/17 01:10:55;;;;;;;;;11.00;11.00;;;;;;;;4975630;28;45397;-71
2023/06/17 01:13:22;;;;;;;;;13.00;12.00;;;;;;;;4975970;28;45448;-69
2023/06/17 01:15:47;;;;;;;;;12.00;12.00;;;;;;;;4975873;28;45491;-72
2023/06/17 01:18:17;;;;;;;;;12.50;12.25;;;;;;;;4974334;28;48509;-71
2023/06/17 01:20:43;;;;;;;;;10.00;10.00;;;;;;;;4975259;28;45568;-69
2023/06/17 01:23:10;;;;;;;;;12.25;12.25;;;;;;;;4975388;28;45462;-73
2023/06/17 01:25:37;;;;;;;;;9.75;9.75;;;;;;;;4976243;28;45368;-72
2023/06/17 01:28:16;;;;;;;;;10.75;10.75;;;;;;;;4976310;28;45433;-72
2023/06/17 01:30:41;;;;;;;;;14.00;14.00;;;;;;;;4976017;28;45400;-72
2023/06/17 01:33:06;;;;;;;;;12.25;10.00;;;;;;;;4976196;28;45337;-73
2023/06/17 01:35:32;;;;;;;;;13.50;12.50;;;;;;;;4976298;28;45595;-72
2023/06/17 01:38:06;;;;;;;;;12.25;11.50;;;;;;;;4976758;28;46372;-72
2023/06/17 01:40:32;;;;;;;;;13.75;13.00;;;;;;;;4976125;28;45277;-72
2023/06/17 01:42:59;;;;;;;;;11.25;10.50;;;;;;;;4976797;28;45507;-72
2023/06/17 01:45:25;;;;;;;;;15.25;12.75;;;;;;;;4958522;28;45410;-72
2023/06/17 01:47:50;;;;;;;;;15.75;13.25;;;;;;;;4976134;28;45448;-72
2023/06/17 01:50:18;;;;;;;;;15.00;13.50;;;;;;;;4976417;28;45496;-72
2023/06/17 01:52:44;;;;;;;;;12.25;11.25;;;;;;;;4976354;28;45441;-72
2023/06/17 01:55:09;;;;;;;;;12.00;12.00;;;;;;;;4976230;28;45497;-72
2023/06/17 01:57:34;;;;;;;;;11.25;11.25;;;;;;;;4975990;28;45383;-72
2023/06/17 01:59:59;;;;;;;;;12.25;10.75;;;;;;;;4976428;28;45508;-72
2023/06/17 02:02:25;;;;;;;;;12.75;10.75;;;;;;;;4976621;28;45423;-72
2023/06/17 02:04:50;;;;;;;;;12.25;12.25;;;;;;;;4976355;28;45509;-72
2023/06/17 02:07:17;;;;;;;;;16.75;14.00;;;;;;;;4976182;28;46218;-72
2023/06/17 02:09:42;;;;;;;;;7.50;7.50;;;;;;;;4976122;28;45413;-72
2023/06/17 02:12:08;;;;;;;;;14.00;12.75;;;;;;;;4976627;28;45408;-72
2023/06/17 02:14:33;;;;;;;;;14.00;14.00;;;;;;;;4976208;28;45490;-72
2023/06/17 02:16:58;;;;;;;;;18.50;16.00;;;;;;;;4976058;28;46313;-72
2023/06/17 02:19:23;;;;;;;;;15.50;15.50;;;;;;;;4974761;28;45436;-72
2023/06/17 02:21:49;;;;;;;;;20.75;18.75;;;;;;;;4976127;28;45336;-72
2023/06/17 02:24:14;;;;;;;;;19.00;19.00;;;;;;;;4975923;28;45439;-72
2023/06/17 02:26:41;;;;;;;;;24.50;22.75;;;;;;;;4975822;28;46179;-72
2023/06/17 02:29:06;;;;;;;;;19.00;19.00;;;;;;;;4975965;28;45613;-72
2023/06/17 02:31:32;;;;;;;;;19.50;17.50;;;;;;;;4958488;28;45479;-72
2023/06/17 02:33:57;;;;;;;;;26.25;24.50;;;;;;;;4975681;28;45231;-72
2023/06/17 02:36:23;;;;;;;;;24.50;22.50;;;;;;;;4975908;28;46214;-72
2023/06/17 02:38:50;;;;;;;;;24.00;24.00;;;;;;;;4976041;28;45298;-72
2023/06/17 02:41:15;;;;;;;;;24.75;23.00;;;;;;;;4975786;28;45334;-72
2023/06/17 02:43:41;;;;;;;;;18.25;18.25;;;;;;;;4973715;28;45939;-72
2023/06/17 02:46:06;;;;;;;;;19.00;18.50;;;;;;;;4971860;28;46044;-72
2023/06/17 02:48:31;;;;;;;;;17.50;17.50;;;;;;;;4971252;28;45739;-72
2023/06/17 02:50:56;;;;;;;;;22.00;19.50;;;;;;;;4975125;28;45311;-72
2023/06/17 02:53:22;;;;;;;;;16.75;16.75;;;;;;;;4972629;28;45579;-72
2023/06/17 02:55:48;;;;;;;;;12.25;12.25;;;;;;;;4973909;28;45438;-72
2023/06/17 02:58:14;;;;;;;;;14.00;14.00;;;;;;;;4974564;28;45445;-72
2023/06/17 03:00:40;;;;;;;;;12.25;11.25;;;;;;;;4974615;28;45412;-71
2023/06/17 03:03:06;;;;;;;;;11.25;9.75;;;;;;;;4974295;28;45425;-72
2023/06/17 03:05:31;;;;;;;;;10.75;9.75;;;;;;;;4975357;28;45519;-73
2023/06/17 03:07:56;;;;;;;;;15.25;13.25;;;;;;;;4975330;28;45482;-72
2023/06/17 03:10:22;;;;;;;;;17.50;12.00;;;;;;;;4975679;28;45436;-72
2023/06/17 03:12:47;;;;;;;;;11.50;11.50;;;;;;;;4975415;28;45540;-72
2023/06/17 03:15:13;;;;;;;;;16.00;11.50;;;;;;;;4975247;28;47166;-72
2023/06/17 03:17:38;;;;;;;;;13.00;13.00;;;;;;;;4975366;28;45325;-72
2023/06/17 03:20:06;;;;;;;;;12.00;12.00;;;;;;;;4975120;28;45394;-72
2023/06/17 03:22:33;;;;;;;;;7.75;7.75;;;;;;;;4975658;28;45295;-72
2023/06/17 03:24:58;;;;;;;;;11.00;11.00;;;;;;;;4973833;28;46214;-72
2023/06/17 03:27:23;;;;;;;;;12.75;11.25;;;;;;;;4975178;28;45380;-72
2023/06/17 03:29:49;;;;;;;;;11.50;11.50;;;;;;;;4975102;28;45425;-74
2023/06/17 03:32:14;;;;;;;;;10.00;9.25;;;;;;;;4974671;28;45389;-72
2023/06/17 03:34:40;;;;;;;;;11.25;11.25;;;;;;;;4974712;28;46001;-72
2023/06/17 03:37:05;;;;;;;;;12.50;11.50;;;;;;;;4975250;28;45368;-73
2023/06/17 03:39:30;;;;;;;;;12.50;12.50;;;;;;;;4975404;28;45395;-75
2023/06/17 03:41:56;;;;;;;;;12.75;11.75;;;;;;;;4975543;28;45260;-75
2023/06/17 03:44:21;;;;;;;;;11.25;11.25;;;;;;;;4975364;28;46297;-73
2023/06/17 03:46:46;;;;;;;;;13.75;12.75;;;;;;;;4969606;28;45353;-75
2023/06/17 03:49:11;;;;;;;;;12.00;12.00;;;;;;;;4973556;28;45372;-73
2023/06/17 03:51:37;;;;;;;;;12.25;12.25;;;;;;;;4973215;28;45781;-73
2023/06/17 03:54:02;;;;;;;;;12.50;11.50;;;;;;;;4965836;28;47104;-73
2023/06/17 03:56:27;;;;;;;;;7.75;7.75;;;;;;;;4957551;28;45399;-72
2023/06/17 03:58:53;;;;;;;;;14.50;13.50;;;;;;;;4959216;28;45416;-73
2023/06/17 04:01:19;;;;;;;;;11.50;11.50;;;;;;;;4958493;28;45526;-72
2023/06/17 04:03:44;;;;;;;;;11.50;10.00;;;;;;;;4958648;28;46339;-72
2023/06/17 04:06:10;;;;;;;;;13.75;11.75;;;;;;;;4958602;28;45504;-73
2023/06/17 04:08:36;;;;;;;;;12.50;10.50;;;;;;;;4958462;28;45526;-72
2023/06/17 04:11:01;;;;;;;;;9.75;8.75;;;;;;;;4958807;28;45302;-73
2023/06/17 04:13:26;;;;;;;;;10.75;8.75;;;;;;;;4958311;28;45980;-73
2023/06/17 04:15:51;;;;;;;;;10.75;10.25;;;;;;;;4958130;28;45511;-73
2023/06/17 04:18:17;;;;;;;;;10.00;9.00;;;;;;;;4958819;28;45566;-72
2023/06/17 04:20:44;;;;;;;;;12.75;10.50;;;;;;;;4958508;28;45318;-72
2023/06/17 04:23:09;;;;;;;;;11.25;11.25;;;;;;;;4958490;28;46195;-75
2023/06/17 04:25:36;;;;;;;;;14.25;12.25;;;;;;;;4958344;28;45423;-75
2023/06/17 04:28:02;;;;;;;;;10.00;10.00;;;;;;;;4958959;28;45462;-72
2023/06/17 04:30:27;;;;;;;;;16.50;13.00;;;;;;;;4977837;28;45722;-72
2023/06/17 04:32:55;;;;;;;;;9.75;8.00;;;;;;;;4977571;28;46333;-72
2023/06/17 04:35:21;;;;;;;;;11.75;9.75;;;;;;;;4977567;28;45330;-72
2023/06/17 04:37:53;;;;;;;;;11.75;10.00;;;;;;;;4977642;28;45335;-74
2023/06/17 04:40:19;;;;;;;;;11.25;10.50;;;;;;;;4977799;28;45297;-75
2023/06/17 04:42:45;;;;;;;;;10.25;10.25;;;;;;;;4977206;28;46759;-74
2023/06/17 04:45:10;;;;;;;;;10.00;9.00;;;;;;;;4976997;28;45365;-75
2023/06/17 04:47:36;;;;;;;;;10.75;10.75;;;;;;;;4976263;28;45411;-74
2023/06/17 04:50:02;;;;;;;;;10.75;9.75;;;;;;;;4977443;28;45389;-76
2023/06/17 04:52:29;;;;;;;;;9.00;9.00;;;;;;;;4977221;28;47064;-75
2023/06/17 04:54:55;;;;;;;;;9.25;9.00;;;;;;;;4976394;28;45668;-74
2023/06/17 04:57:20;;;;;;;;;13.50;9.50;;;;;;;;4976653;28;45479;-75
2023/06/17 04:59:45;;;;;;;;;8.00;8.00;;;;;;;;4976944;28;45421;-75
2023/06/17 05:02:11;;;;;;;;;13.50;11.75;;;;;;;;4977447;28;46233;-75
2023/06/17 05:04:36;;;;;;;;;10.00;10.00;;;;;;;;4976845;28;45476;-74
2023/06/17 05:07:01;;;;;;;;;8.50;8.00;;;;;;;;4977513;28;45363;-75
2023/06/17 05:09:26;;;;;;;;;8.75;8.75;;;;;;;;4977089;28;45356;-75
2023/06/17 05:11:52;;;;;;;;;9.00;8.75;;;;;;;;4977453;28;45802;-75
2023/06/17 05:14:17;;;;;;;;;12.75;10.25;;;;;;;;4976977;28;45518;-74
2023/06/17 05:16:42;;;;;;;;;10.50;10.50;;;;;;;;4977667;28;45562;-75
2023/06/17 05:19:07;;;;;;;;;9.50;9.00;;;;;;;;4977646;28;45509;-77
2023/06/17 05:21:33;;;;;;;;;10.00;10.00;;;;;;;;4977512;28;46179;-76
2023/06/17 05:23:58;;;;;;;;;11.25;11.25;;;;;;;;4977518;28;45398;-76
2023/06/17 05:26:23;;;;;;;;;9.75;9.75;;;;;;;;4976339;28;45339;-75
2023/06/17 05:28:48;;;;;;;;;11.00;11.00;;;;;;;;4977091;28;45462;-77
2023/06/17 05:31:13;;;;;;;;;9.75;9.75;;;;;;;;4976910;28;45500;-76
2023/06/17 05:33:39;;;;;;;;;9.00;9.00;;;;;;;;4976976;28;45472;-77
2023/06/17 05:36:04;;;;;;;;;7.75;7.75;;;;;;;;4976709;28;45299;-75
2023/06/17 05:38:30;;;;;;;;;7.50;7.50;;;;;;;;4977070;28;45348;-75
2023/06/17 05:40:55;;;;;;;;;6.75;5.75;;;;;;;;4975644;28;47366;-75
2023/06/17 05:43:21;;;;;;;;;9.00;9.00;;;;;;;;4976457;28;45524;-77
2023/06/17 05:45:46;;;;;;;;;9.50;9.50;;;;;;;;4976752;28;45570;-78
2023/06/17 05:48:12;;;;;;;;;9.50;9.50;;;;;;;;4975653;28;45588;-77
2023/06/17 05:50:37;;;;;;;;;12.75;10.25;;;;;;;;4976694;28;45339;-77
2023/06/17 05:53:02;;;;;;;;;9.50;9.50;;;;;;;;4976412;28;45464;-77
2023/06/17 05:55:28;;;;;;;;;11.50;9.00;;;;;;;;4976756;28;45407;-76
2023/06/17 05:57:54;;;;;;;;;9.00;9.00;;;;;;;;4976668;28;45468;-76
2023/06/17 06:00:19;;;;;;;;;11.00;10.00;;;;;;;;4976521;28;47247;-77
2023/06/17 06:02:44;;;;;;;;;9.75;8.50;;;;;;;;4976655;28;45402;-67
2023/06/17 06:05:09;;;;;;;;;10.75;9.25;;;;;;;;4976642;28;45504;-67
2023/06/17 06:07:35;;;;;;;;;9.75;9.75;;;;;;;;4976471;28;45388;-67
2023/06/17 06:10:03;;;;;;;;;9.75;9.75;;;;;;;;4976411;28;45411;-67
2023/06/17 06:12:28;;;;;;;;;10.50;9.50;;;;;;;;4974989;28;45317;-67
2023/06/17 06:14:54;;;;;;;;;11.25;10.25;;;;;;;;4976355;28;45425;-67
2023/06/17 06:17:19;;;;;;;;;10.25;10.25;;;;;;;;4975895;28;45289;-68
2023/06/17 06:19:44;;;;;;;;;9.75;9.75;;;;;;;;4976266;28;45379;-68
2023/06/17 06:22:09;;;;;;;;;11.25;9.00;;;;;;;;4976311;28;45500;-68
2023/06/17 06:24:34;;;;;;;;;10.50;9.50;;;;;;;;4976448;28;45321;-69
2023/06/17 06:27:00;;;;;;;;;9.75;9.75;;;;;;;;4974849;28;45330;-68
2023/06/17 06:29:25;;;;;;;;;10.25;9.00;;;;;;;;4976070;28;45449;-69
2023/06/17 06:31:50;;;;;;;;;10.25;9.25;;;;;;;;4976289;28;45235;-68
2023/06/17 06:34:15;;;;;;;;;10.00;9.25;;;;;;;;4976338;28;45465;-68
2023/06/17 06:36:41;;;;;;;;;10.50;9.50;;;;;;;;4976249;28;45313;-68
2023/06/17 06:39:06;;;;;;;;;10.25;10.25;;;;;;;;4976150;28;45390;-67
2023/06/17 06:41:31;;;;;;;;;11.50;11.50;;;;;;;;4975753;28;45265;-68
2023/06/17 06:43:56;;;;;;;;;10.25;8.25;;;;;;;;4976107;28;45519;-68
2023/06/17 06:46:22;;;;;;;;;12.00;9.25;;;;;;;;4975335;28;45290;-68
2023/06/17 06:48:47;;;;;;;;;12.50;10.25;;;;;;;;4974257;28;46187;-67
2023/06/17 06:51:13;;;;;;;;;8.25;8.25;;;;;;;;4975607;28;46620;-66
2023/06/17 06:53:38;;;;;;;;;9.00;8.00;;;;;;;;4974724;28;45540;-67
2023/06/17 06:56:03;;;;;;;;;8.25;8.25;;;;;;;;4974670;28;45414;-66
2023/06/17 06:58:29;;;;;;;;;10.00;10.00;;;;;;;;4975496;28;45875;-65
2023/06/17 07:00:54;;;;;;;;;8.50;8.00;;;;;;;;4974577;28;45406;-66
2023/06/17 07:03:19;;;;;;;;;7.00;7.00;;;;;;;;4975751;28;45712;-68
2023/06/17 07:05:45;;;;;;;;;9.00;9.00;;;;;;;;4975504;28;45557;-69
2023/06/17 07:08:10;;;;;;;;;8.25;7.75;;;;;;;;4975127;28;45993;-72
2023/06/17 07:10:39;;;;;;;;;10.25;9.00;;;;;;;;4975332;28;45399;-72
2023/06/17 07:13:04;;;;;;;;;8.25;8.25;;;;;;;;4975243;28;45413;-71
2023/06/17 07:15:30;;;;;;;;;10.25;9.00;;;;;;;;4974960;28;45508;-71
2023/06/17 07:17:55;;;;;;;;;6.75;6.75;;;;;;;;4975175;28;47077;-72
2023/06/17 07:20:20;;;;;;;;;8.25;7.00;;;;;;;;4975380;28;45341;-73
2023/06/17 07:22:45;;;;;;;;;7.50;6.25;;;;;;;;4975613;28;45374;-71
2023/06/17 07:25:11;;;;;;;;;8.00;8.00;;;;;;;;4973995;28;45314;-70
2023/06/17 07:27:36;;;;;;;;;8.50;8.00;;;;;;;;4974512;28;46367;-67
2023/06/17 07:30:01;;;;;;;;;8.75;8.75;;;;;;;;4975534;28;45381;-68
2023/06/17 07:32:26;;;;;;;;;4.00;4.00;;;;;;;;4978869;28;45381;-67
2023/06/17 07:34:53;;;;;;;;;9.25;9.00;;;;;;;;4978880;28;45595;-68
2023/06/17 07:37:18;;;;;;;;;9.00;9.00;;;;;;;;4977135;28;45524;-69
2023/06/17 07:39:46;;;;;;;;;7.50;6.50;;;;;;;;4978089;28;45469;-69
2023/06/17 07:42:12;;;;;;;;;8.75;8.75;;;;;;;;4976590;28;45453;-72
2023/06/17 07:44:37;;;;;;;;;10.50;9.75;;;;;;;;4977308;28;45416;-72
2023/06/17 07:47:02;;;;;;;;;7.00;6.75;;;;;;;;4977470;28;46737;-70
2023/06/17 07:49:29;;;;;;;;;10.50;10.50;;;;;;;;4977003;28;45437;-68
2023/06/17 07:51:55;;;;;;;;;9.00;9.00;;;;;;;;4975936;28;45376;-68
2023/06/17 07:54:20;;;;;;;;;9.25;9.25;;;;;;;;4976654;28;45370;-68
2023/06/17 07:56:46;;;;;;;;;10.00;10.00;;;;;;;;4977407;28;45407;-68
2023/06/17 07:59:11;;;;;;;;;9.25;9.25;;;;;;;;4977466;28;45490;-69
2023/06/17 08:01:37;;;;;;;;;9.00;8.00;;;;;;;;4977902;28;45401;-69
2023/06/17 08:04:02;;;;;;;;;8.50;7.25;;;;;;;;4977662;28;45425;-69
2023/06/17 08:06:29;;;;;;;;;9.00;9.00;;;;;;;;4976932;28;45991;-67
2023/06/17 08:08:54;;;;;;;;;12.00;9.75;;;;;;;;4976804;28;45512;-67
2023/06/17 08:11:19;;;;;;;;;9.25;9.25;;;;;;;;4977237;28;45974;-69
2023/06/17 08:13:44;;;;;;;;;9.00;9.00;;;;;;;;4978023;28;45736;-67
2023/06/17 08:16:10;;;;;;;;;6.75;6.75;;;;;;;;4977865;28;46244;-65
2023/06/17 08:18:35;;;;;;;;;7.25;7.25;;;;;;;;4977976;28;45412;-66
2023/06/17 08:21:00;;;;;;;;;9.00;8.00;;;;;;;;4978167;28;45512;-66
2023/06/17 08:23:25;;;;;;;;;9.25;8.00;;;;;;;;4976557;28;45636;-66
2023/06/17 08:25:51;;;;;;;;;8.75;8.25;;;;;;;;4955484;28;46515;-64
2023/06/17 08:28:16;;;;;;;;;7.75;7.25;;;;;;;;4974832;28;45476;-65
2023/06/17 08:30:41;;;;;;;;;9.75;9.25;;;;;;;;4976567;28;45475;-65
2023/06/17 08:33:06;;;;;;;;;7.75;6.50;;;;;;;;4957454;28;46034;-66
2023/06/17 08:35:31;;;;;;;;;7.75;7.75;;;;;;;;4974418;28;47088;-65
2023/06/17 08:37:57;;;;;;;;;6.25;6.25;;;;;;;;4962299;28;45587;-66
2023/06/17 08:40:23;;;;;;;;;8.00;7.25;;;;;;;;4969061;28;45455;-66
2023/06/17 08:42:52;;;;;;;;;6.75;6.00;;;;;;;;4968545;28;45510;-67
2023/06/17 08:45:18;;;;;;;;;9.00;9.00;;;;;;;;4961171;28;46455;-66
2023/06/17 08:47:43;;;;;;;;;8.75;8.00;;;;;;;;4973741;28;45390;-67
2023/06/17 08:50:09;;;;;;;;;8.25;8.25;;;;;;;;4971955;28;45409;-66
2023/06/17 08:52:36;;;;;;;;;8.50;7.50;;;;;;;;4977434;28;45525;-67
2023/06/17 08:55:01;;;;;;;;;7.75;7.50;;;;;;;;4977403;28;45501;-66
2023/06/17 08:57:27;;;;;;;;;8.00;8.00;;;;;;;;4976806;28;45333;-66
2023/06/17 08:59:53;;;;;;;;;8.75;7.75;;;;;;;;4977656;28;45365;-66
2023/06/17 09:02:18;;;;;;;;;10.25;9.00;;;;;;;;4963592;28;45416;-66
2023/06/17 09:04:43;;;;;;;;;8.25;8.25;;;;;;;;4974945;28;45463;-66
2023/06/17 09:07:09;;;;;;;;;9.50;9.50;;;;;;;;4971416;28;45436;-66
2023/06/17 09:09:34;;;;;;;;;10.25;9.00;;;;;;;;4966168;28;45446;-66
2023/06/17 09:12:01;;;;;;;;;9.75;9.75;;;;;;;;4962610;28;45266;-67
2023/06/17 09:14:26;;;;;;;;;11.00;10.50;;;;;;;;4972476;28;45404;-66
2023/06/17 09:16:51;;;;;;;;;8.25;8.25;;;;;;;;4960499;28;45251;-65
2023/06/17 09:19:17;;;;;;;;;10.50;9.50;;;;;;;;4969297;28;45474;-65
2023/06/17 09:21:45;;;;;;;;;8.00;8.00;;;;;;;;4967014;28;45390;-66
2023/06/17 09:24:10;;;;;;;;;12.25;11.00;;;;;;;;4963090;28;46351;-66
2023/06/17 09:26:39;;;;;;;;;15.00;11.25;;;;;;;;4956897;28;45345;-66
2023/06/17 09:29:05;;;;;;;;;11.00;11.00;;;;;;;;4972220;28;45438;-66
2023/06/17 09:31:31;;;;;;;;;10.00;10.00;;;;;;;;4971461;28;45384;-67
2023/06/17 09:33:56;;;;;;;;;9.50;8.25;;;;;;;;4976717;28;47238;-66
2023/06/17 09:36:23;;;;;;;;;11.00;9.00;;;;;;;;4974934;28;45454;-67
2023/06/17 09:38:50;;;;;;;;;9.00;8.50;;;;;;;;4976777;28;45392;-67
2023/06/17 09:41:15;;;;;;;;;11.75;10.00;;;;;;;;4975417;28;45534;-69
2023/06/17 09:43:43;;;;;;;;;13.00;12.00;;;;;;;;4976359;28;45334;-71
2023/06/17 09:46:09;;;;;;;;;9.50;9.50;;;;;;;;4976895;28;45361;-70
2023/06/17 09:48:37;;;;;;;;;12.25;12.25;;;;;;;;4976609;28;45323;-71
2023/06/17 09:51:05;;;;;;;;;10.50;10.00;;;;;;;;4976795;28;45405;-67
2023/06/17 09:53:30;;;;;;;;;8.50;8.50;;;;;;;;4975460;28;46193;-69
2023/06/17 09:55:57;;;;;;;;;13.00;10.50;;;;;;;;4976683;28;45555;-68
2023/06/17 09:58:26;;;;;;;;;10.75;10.50;;;;;;;;4977009;28;45377;-67
2023/06/17 10:00:54;;;;;;;;;10.00;10.00;;;;;;;;4976553;28;45484;-67
2023/06/17 10:03:20;;;;;;;;;12.25;11.00;;;;;;;;4976352;28;45482;-68
2023/06/17 10:05:51;;;;;;;;;12.25;12.25;;;;;;;;4976399;28;45386;-68
2023/06/17 10:08:17;;;;;;;;;11.25;10.25;;;;;;;;4976581;28;45354;-67
2023/06/17 10:10:42;;;;;;;;;12.25;11.00;;;;;;;;4976248;28;45292;-67
2023/06/17 10:13:07;;;;;;;;;12.00;12.00;;;;;;;;4974777;28;45463;-67
2023/06/17 10:15:33;;;;;;;;;8.00;8.00;;;;;;;;4976046;28;45305;-67
2023/06/17 10:17:58;;;;;;;;;8.75;8.50;;;;;;;;4976256;28;45335;-67
2023/06/17 10:20:28;;;;;;;;;11.00;10.00;;;;;;;;4976420;28;45437;-67
2023/06/17 10:22:55;;;;;;;;;11.75;11.75;;;;;;;;4976156;28;46234;-69
2023/06/17 10:25:20;;;;;;;;;13.00;13.00;;;;;;;;4976126;28;45757;-68
2023/06/17 10:27:45;;;;;;;;;15.25;14.50;;;;;;;;4975934;28;45474;-69
2023/06/17 10:30:27;;;;;;;;;7.25;7.25;;;;;;;;4976127;28;45436;-68
2023/06/17 10:32:56;;;;;;;;;14.00;12.50;;;;;;;;4975874;28;46201;-69
2023/06/17 10:35:21;;;;;;;;;14.75;14.00;;;;;;;;4974572;28;45381;-68
2023/06/17 10:37:48;;;;;;;;;11.75;11.75;;;;;;;;4975980;28;45311;-69
2023/06/17 10:40:23;;;;;;;;;12.25;12.25;;;;;;;;4976254;28;45381;-68
2023/06/17 10:43:00;;;;;;;;;13.00;13.00;;;;;;;;4975649;28;47310;-68
2023/06/17 10:45:27;;;;;;;;;13.75;13.75;;;;;;;;4975610;28;45330;-66
2023/06/17 10:48:12;;;;;;;;;13.75;11.75;;;;;;;;4975767;28;45275;-67
2023/06/17 10:50:37;;;;;;;;;14.75;14.75;;;;;;;;4974554;28;45523;-68
2023/06/17 10:53:02;;;;;;;;;14.25;11.50;;;;;;;;4975753;28;46305;-66
2023/06/17 10:55:27;;;;;;;;;14.25;14.25;;;;;;;;4956049;28;45351;-67
2023/06/17 10:57:57;;;;;;;;;13.75;12.25;;;;;;;;4956454;28;45293;-67
2023/06/17 11:00:22;;;;;;;;;15.00;14.00;;;;;;;;4956326;28;45485;-67
2023/06/17 11:02:47;;;;;;;;;14.50;12.25;;;;;;;;4955960;28;46369;-66
2023/06/17 11:05:15;;;;;;;;;16.75;14.50;;;;;;;;4954554;28;45591;-67
2023/06/17 11:07:40;;;;;;;;;13.00;13.00;;;;;;;;4956339;28;45452;-69
2023/06/17 11:10:05;;;;;;;;;12.75;12.75;;;;;;;;4955985;28;45473;-69
2023/06/17 11:12:31;;;;;;;;;12.50;12.50;;;;;;;;4955867;28;46289;-71
2023/06/17 11:14:59;;;;;;;;;16.75;15.75;;;;;;;;4954001;28;45671;-69
2023/06/17 11:17:24;;;;;;;;;13.00;12.75;;;;;;;;4954739;28;45387;-67
2023/06/17 11:19:50;;;;;;;;;10.75;9.75;;;;;;;;4954951;28;45314;-67
2023/06/17 11:22:15;;;;;;;;;12.75;12.75;;;;;;;;4953697;28;46065;-68
2023/06/17 11:24:43;;;;;;;;;9.25;9.25;;;;;;;;4954613;28;45393;-68
2023/06/17 11:27:10;;;;;;;;;11.25;11.25;;;;;;;;4966414;28;45548;-68
2023/06/17 11:29:39;;;;;;;;;13.00;11.75;;;;;;;;4973428;28;45412;-67
2023/06/17 11:32:05;;;;;;;;;10.50;10.50;;;;;;;;4973453;28;49195;-68
2023/06/17 11:34:33;;;;;;;;;13.75;10.75;;;;;;;;4973744;28;45455;-68
2023/06/17 11:37:00;;;;;;;;;10.50;9.75;;;;;;;;4974616;28;45435;-69
2023/06/17 11:39:29;;;;;;;;;12.00;12.00;;;;;;;;4972202;28;45472;-69
2023/06/17 11:42:01;;;;;;;;;8.75;8.00;;;;;;;;4973944;28;46581;-67
2023/06/17 11:44:26;;;;;;;;;9.00;9.00;;;;;;;;4973735;28;45520;-67
2023/06/17 11:46:53;;;;;;;;;11.50;11.00;;;;;;;;4974331;28;45492;-68
2023/06/17 11:49:23;;;;;;;;;11.25;10.75;;;;;;;;4974533;28;45385;-69
2023/06/17 11:51:49;;;;;;;;;10.50;9.50;;;;;;;;4972474;28;47690;-67
2023/06/17 11:54:14;;;;;;;;;13.50;10.50;;;;;;;;4973552;28;45438;-67
2023/06/17 11:56:40;;;;;;;;;11.75;11.75;;;;;;;;4974187;28;45484;-68
2023/06/17 11:59:05;;;;;;;;;11.50;11.50;;;;;;;;4973779;28;45487;-68
2023/06/17 12:01:31;;;;;;;;;11.75;10.25;;;;;;;;4973597;28;46548;-68
2023/06/17 12:03:57;;;;;;;;;8.75;8.75;;;;;;;;4973930;28;45515;-71
2023/06/17 12:06:22;;;;;;;;;11.75;11.25;;;;;;;;4972108;28;45488;-70
2023/06/17 12:08:58;;;;;;;;;10.50;10.25;;;;;;;;4973695;28;45535;-73
2023/06/17 12:11:29;;;;;;;;;13.25;11.75;;;;;;;;4973792;28;45645;-68
2023/06/17 12:13:54;;;;;;;;;12.00;12.00;;;;;;;;4973342;28;45559;-67
2023/06/17 12:16:40;;;;;;;;;11.25;11.25;;;;;;;;4975215;28;45528;-68
2023/06/17 12:19:07;;;;;;;;;10.25;10.00;;;;;;;;4975391;28;45543;-68
2023/06/17 12:21:34;;;;;;;;;10.50;9.50;;;;;;;;4976597;28;47257;-68
2023/06/17 12:23:59;;;;;;;;;10.50;8.50;;;;;;;;4976697;28;45325;-67
2023/06/17 12:26:25;;;;;;;;;14.25;13.25;;;;;;;;4975739;28;45496;-67
2023/06/17 12:28:50;;;;;;;;;9.50;9.50;;;;;;;;4977548;28;45400;-67
2023/06/17 12:31:17;;;;;;;;;8.75;8.75;;;;;;;;4977148;28;46594;-67
2023/06/17 12:33:43;;;;;;;;;9.00;9.00;;;;;;;;4977503;28;45416;-67
2023/06/17 12:36:08;;;;;;;;;12.00;12.00;;;;;;;;4977490;28;45317;-67
2023/06/17 12:38:33;;;;;;;;;11.25;10.50;;;;;;;;4975924;28;45570;-68
2023/06/17 12:41:00;;;;;;;;;10.00;10.00;;;;;;;;4976317;28;45601;-69
2023/06/17 12:43:25;;;;;;;;;10.25;10.25;;;;;;;;4976147;28;45487;-67
2023/06/17 12:45:50;;;;;;;;;13.75;13.00;;;;;;;;4975435;28;45507;-68
2023/06/17 12:48:16;;;;;;;;;11.25;10.75;;;;;;;;4976643;28;45407;-66
2023/06/17 12:50:41;;;;;;;;;14.00;12.25;;;;;;;;4975964;28;46306;-67
2023/06/17 12:53:07;;;;;;;;;11.75;11.50;;;;;;;;4976265;28;45480;-67
2023/06/17 12:55:32;;;;;;;;;10.50;10.50;;;;;;;;4976674;28;45378;-66
2023/06/17 12:57:58;;;;;;;;;14.00;12.50;;;;;;;;4976376;28;45415;-66
2023/06/17 13:00:24;;;;;;;;;10.50;10.50;;;;;;;;4976434;28;45415;-66
2023/06/17 13:02:49;;;;;;;;;14.75;14.75;;;;;;;;4976055;28;45528;-66
2023/06/17 13:05:14;;;;;;;;;13.75;13.75;;;;;;;;4974435;28;45445;-66
2023/06/17 13:07:41;;;;;;;;;14.50;14.25;;;;;;;;4975198;28;45563;-66
2023/06/17 13:10:06;;;;;;;;;10.25;10.25;;;;;;;;4976086;28;46941;-67
2023/06/17 13:12:32;;;;;;;;;15.25;14.75;;;;;;;;4975738;28;45373;-67
2023/06/17 13:14:57;;;;;;;;;12.25;12.25;;;;;;;;4976371;28;45414;-68
2023/06/17 13:17:22;;;;;;;;;11.50;10.50;;;;;;;;4974663;28;45489;-67
2023/06/17 13:19:47;;;;;;;;;12.00;12.00;;;;;;;;4975015;28;45398;-66
2023/06/17 13:22:12;;;;;;;;;16.50;12.75;;;;;;;;4976070;28;45639;-67
2023/06/17 13:24:38;;;;;;;;;12.50;12.50;;;;;;;;4976039;28;45299;-66
2023/06/17 13:27:03;;;;;;;;;13.50;11.25;;;;;;;;4974943;28;45374;-68
2023/06/17 13:29:28;;;;;;;;;14.75;14.25;;;;;;;;4975710;28;45742;-67
2023/06/17 13:31:55;;;;;;;;;12.00;10.75;;;;;;;;4974269;28;45627;-69
2023/06/17 13:34:20;;;;;;;;;11.25;10.75;;;;;;;;4976055;28;45480;-66
2023/06/17 13:36:46;;;;;;;;;12.00;12.00;;;;;;;;4975719;28;45464;-67
2023/06/17 13:39:11;;;;;;;;;12.75;12.75;;;;;;;;4975600;28;46521;-66
2023/06/17 13:41:36;;;;;;;;;8.50;7.00;;;;;;;;4975442;28;45477;-68
2023/06/17 13:44:01;;;;;;;;;12.75;9.75;;;;;;;;4975146;28;45543;-70
2023/06/17 13:46:27;;;;;;;;;10.25;10.00;;;;;;;;4975666;28;45485;-68
2023/06/17 13:48:52;;;;;;;;;12.00;12.00;;;;;;;;4975465;28;45539;-68
2023/06/17 13:51:18;;;;;;;;;13.50;11.25;;;;;;;;4975640;28;45626;-67
2023/06/17 13:53:43;;;;;;;;;11.00;9.25;;;;;;;;4975549;28;45659;-68
2023/06/17 13:56:08;;;;;;;;;10.00;10.00;;;;;;;;4973830;28;45532;-68
2023/06/17 13:58:33;;;;;;;;;11.25;10.50;;;;;;;;4975505;28;46118;-69
2023/06/17 14:00:58;;;;;;;;;12.00;10.00;;;;;;;;4974276;28;45509;-71
2023/06/17 14:03:24;;;;;;;;;11.75;10.00;;;;;;;;4975725;28;45515;-75
2023/06/17 14:05:49;;;;;;;;;10.75;10.75;;;;;;;;4975519;28;45454;-68
2023/06/17 14:08:14;;;;;;;;;10.00;10.00;;;;;;;;4975137;28;46350;-67
2023/06/17 14:10:40;;;;;;;;;13.75;12.25;;;;;;;;4974869;28;45500;-71
2023/06/17 14:13:05;;;;;;;;;12.50;11.50;;;;;;;;4975329;28;45746;-72
2023/06/17 14:15:30;;;;;;;;;17.75;16.25;;;;;;;;4975423;28;45989;-70
2023/06/17 14:17:55;;;;;;;;;12.00;12.00;;;;;;;;4973667;28;46673;-68
2023/06/17 14:20:21;;;;;;;;;13.25;11.25;;;;;;;;4975342;28;45475;-68